world map with SGGR marked

SGGR - Airport

This information may not be accurate or current and is not valid for navigation or flight planning. No warranty of fitness for any purpose is made or implied.

flag of Canindeyúflag of Paraguay

Donate via PayPal

Additional information is available on the NEW Great Circle Mapper

Location
City:  Salto del Guairá, Canindeyú, Paraguay
Name:Salto del Guairá Airport
ICAO:SGGR

Details
Type:Airport (Aerodrome, Airfield)
Use:Public/Civil
Latitude:24°01'55"S (-24.031943)
Longitude:54°21'03"W (-54.350832)
Runways:1
Longest:4593 × 90 ft (1400 × 27.5 m)

Time
Timezone:UTC+30:08 (DST+33:08)
Local Time:

Weather
METAR:SGGR  041200Z 18002KT 9999 SCT033 26/23 Q1011

Related Locations
Nearby:
Farthest:MMY: 12375 mi / 19916 km
Miyakojima [Miyako Airport], Miyakojima Island, 47, JP

Find:

   beyond  
but within

Other Information
Maps:
Sources:

  


 


Great Circle Mapper   Great Circle Mapper
Great Circle Mapper FAQ   Great Circle Mapper FAQ
  Karl's Home Page
KLS²   KLS² Home
   GC on Facebook
Airlines of the World   Airlines of the World
Donate via PayPal


Copyright © 2004-2024, Karl L. Swartz. All rights reserved.
All trademarks mentioned herein belong to their respective owners.

Please see credits for attribution and copyright information.

Karl Swartz <karl@kls2.com>
  Powered by FreeBSD
Valid HTML 4.01!
Labeled with ICRA
hCard Microformat
Geo Microformat